createdAt,value
2018-05-23T00:00:28.677Z,101153.16
2018-05-23T00:03:31.293Z,101155.61
2018-05-23T00:06:33.920Z,101154.43
2018-05-23T00:09:43.439Z,101148.69
2018-05-23T00:12:53.231Z,101149.84
2018-05-23T00:15:55.842Z,101155.97
2018-05-23T00:18:58.362Z,101152.92
2018-05-23T00:22:01.001Z,101149.25
2018-05-23T00:25:03.534Z,101157.72
2018-05-23T00:28:06.108Z,101160.36
2018-05-23T00:31:08.659Z,101160.48
2018-05-23T00:34:11.235Z,101164.52
2018-05-23T00:37:13.760Z,101157.08
2018-05-23T00:40:16.285Z,101162.14
2018-05-23T00:43:18.796Z,101162.45
2018-05-23T00:46:21.381Z,101163.57
2018-05-23T00:49:23.946Z,101162.22
2018-05-23T00:52:27.027Z,101162.14
2018-05-23T00:55:34.331Z,101166.77
2018-05-23T00:58:36.899Z,101157.58
2018-05-23T01:01:39.437Z,101167.42
2018-05-23T01:04:42.038Z,101165.46
2018-05-23T01:07:44.675Z,101169.69
2018-05-23T01:10:47.276Z,101170.73
2018-05-23T01:13:50.821Z,101171.58
2018-05-23T01:16:53.389Z,101179.44
2018-05-23T01:19:55.919Z,101180.78
2018-05-23T01:22:58.573Z,101178.78
2018-05-23T01:26:01.174Z,101182.32
2018-05-23T01:29:03.777Z,101181.34
2018-05-23T01:32:06.411Z,101186.58
2018-05-23T01:35:09.011Z,101189.98
2018-05-23T01:38:11.574Z,101195.27
2018-05-23T01:41:14.072Z,101198.04
2018-05-23T01:44:16.753Z,101205.43
2018-05-23T01:47:19.382Z,101197.27
2018-05-23T01:50:21.911Z,101200.72
2018-05-23T01:53:24.462Z,101205.04
2018-05-23T01:56:26.968Z,101202.58
2018-05-23T01:59:29.829Z,101204.75
2018-05-23T02:02:32.364Z,101206.55
2018-05-23T02:05:34.860Z,101213.02
2018-05-23T02:08:37.384Z,101209.95
2018-05-23T02:11:39.885Z,101209.31
2018-05-23T02:14:42.427Z,101207.48
2018-05-23T02:17:45.903Z,101202.85
2018-05-23T02:20:48.527Z,101205.02
2018-05-23T02:23:51.882Z,101202.46
2018-05-23T02:26:54.428Z,101208.41
2018-05-23T02:29:56.920Z,101204.74
2018-05-23T02:32:59.475Z,101214.45
2018-05-23T02:36:01.998Z,101209.50
2018-05-23T02:39:04.524Z,101220.34
2018-05-23T02:42:07.097Z,101218.44
2018-05-23T02:45:09.648Z,101217.81
2018-05-23T02:48:12.174Z,101221.06
2018-05-23T02:51:14.665Z,101216.22
2018-05-23T02:54:17.183Z,101217.98
2018-05-23T02:57:19.675Z,101219.55
2018-05-23T03:00:22.246Z,101228.66
2018-05-23T03:03:24.766Z,101229.04
2018-05-23T03:06:27.293Z,101230.86
2018-05-23T03:09:29.898Z,101225.08
2018-05-23T03:12:32.416Z,101233.00
2018-05-23T03:15:34.931Z,101233.44
2018-05-23T03:18:37.472Z,101239.33
2018-05-23T03:21:40.143Z,101244.00
2018-05-23T03:24:42.650Z,101250.23
2018-05-23T03:27:45.155Z,101255.20
2018-05-23T03:30:47.729Z,101257.48
2018-05-23T03:33:50.246Z,101261.59
2018-05-23T03:36:52.732Z,101268.33
2018-05-23T03:39:55.259Z,101268.30
2018-05-23T03:42:57.756Z,101268.00
2018-05-23T03:46:00.263Z,101270.85
2018-05-23T03:49:03.779Z,101274.88
2018-05-23T03:52:06.318Z,101280.38
2018-05-23T03:55:08.865Z,101282.89
2018-05-23T03:58:11.574Z,101290.33
2018-05-23T04:01:25.757Z,101294.10
2018-05-23T04:04:40.097Z,101298.19
2018-05-23T04:07:42.675Z,101294.71
2018-05-23T04:10:45.173Z,101296.50
2018-05-23T04:13:47.724Z,101304.00
2018-05-23T04:16:50.231Z,101302.30
2018-05-23T04:19:52.777Z,101309.47
2018-05-23T04:22:55.259Z,101313.42
2018-05-23T04:25:57.749Z,101305.59
2018-05-23T04:29:00.246Z,101312.47
2018-05-23T04:32:02.782Z,101315.78
2018-05-23T04:35:05.359Z,101318.61
2018-05-23T04:38:07.945Z,101321.95
2018-05-23T04:41:10.494Z,101325.50
2018-05-23T04:44:13.001Z,101319.59
2018-05-23T04:47:15.503Z,101330.59
2018-05-23T04:50:18.000Z,101334.30
2018-05-23T04:53:20.522Z,101336.80
2018-05-23T04:56:23.026Z,101339.30
2018-05-23T04:59:25.547Z,101336.23
2018-05-23T05:02:28.050Z,101346.86
2018-05-23T05:05:30.578Z,101345.94
2018-05-23T05:08:33.135Z,101351.30
2018-05-23T05:11:35.744Z,101361.27
2018-05-23T05:14:38.344Z,101367.12
2018-05-23T05:17:40.958Z,101369.99
2018-05-23T05:20:43.515Z,101372.37
2018-05-23T05:23:46.083Z,101378.59
2018-05-23T05:26:48.612Z,101378.35
2018-05-23T05:29:51.106Z,101383.52
2018-05-23T05:32:53.640Z,101387.94
2018-05-23T05:35:56.167Z,101396.59
2018-05-23T05:38:58.654Z,101389.42
2018-05-23T05:42:01.154Z,101392.19
2018-05-23T05:45:03.640Z,101390.52
2018-05-23T05:48:06.169Z,101391.91
2018-05-23T05:51:09.477Z,101399.45
2018-05-23T05:54:11.959Z,101401.74
2018-05-23T05:57:14.503Z,101406.80
2018-05-23T06:00:17.087Z,101409.78
2018-05-23T06:03:19.736Z,101411.46
2018-05-23T06:06:22.267Z,101415.42
2018-05-23T06:09:24.763Z,101415.34
2018-05-23T06:12:27.327Z,101421.13
2018-05-23T06:15:30.336Z,101420.45
2018-05-23T06:18:33.738Z,101427.16
2018-05-23T06:21:36.378Z,101425.70
2018-05-23T06:28:00.506Z,101427.48
2018-05-23T06:31:04.007Z,101428.08
2018-05-23T06:34:07.510Z,101424.83
2018-05-23T06:37:10.153Z,101430.16
2018-05-23T06:40:12.834Z,101429.56
2018-05-23T06:50:23.396Z,101451.77
2018-05-23T06:53:25.959Z,101451.05
2018-05-23T06:56:28.545Z,101456.42
2018-05-23T06:59:31.068Z,101458.03
2018-05-23T07:02:33.592Z,101450.87
2018-05-23T07:05:36.179Z,101448.94
2018-05-23T07:08:38.658Z,101458.40
2018-05-23T07:11:41.391Z,101454.05
2018-05-23T07:14:43.896Z,101450.78
2018-05-23T07:17:46.959Z,101454.12
2018-05-23T07:20:49.495Z,101449.55
2018-05-23T07:23:52.009Z,101455.66
2018-05-23T07:26:54.555Z,101461.84
2018-05-23T07:29:57.137Z,101455.39
2018-05-23T07:32:59.667Z,101451.95
2018-05-23T07:36:02.179Z,101462.22
2018-05-23T07:39:04.706Z,101464.95
2018-05-23T07:42:07.253Z,101463.67
2018-05-23T07:45:09.761Z,101466.09
2018-05-23T07:48:13.039Z,101457.42
2018-05-23T07:51:15.624Z,101467.34
2018-05-23T07:54:18.156Z,101468.61
2018-05-23T07:57:20.672Z,101466.22
2018-05-23T08:00:23.272Z,101470.52
2018-05-23T08:03:25.818Z,101467.90
2018-05-23T08:09:37.147Z,101471.59
2018-05-23T08:12:39.688Z,101471.25
2018-05-23T08:15:42.220Z,101465.88
2018-05-23T08:18:44.811Z,101469.11
2018-05-23T08:21:47.480Z,101474.96
2018-05-23T08:24:50.159Z,101473.19
2018-05-23T08:27:52.684Z,101478.00
2018-05-23T08:30:55.279Z,101479.12
2018-05-23T08:33:57.803Z,101478.80
2018-05-23T08:37:00.312Z,101484.32
2018-05-23T08:40:02.865Z,101485.96
2018-05-23T08:43:05.392Z,101488.39
2018-05-23T08:46:07.990Z,101487.11
2018-05-23T08:49:10.388Z,101484.63
2018-05-23T08:52:12.936Z,101489.53
2018-05-23T08:55:15.966Z,101489.62
2018-05-23T08:58:18.500Z,101482.33
2018-05-23T09:01:20.983Z,101490.09
2018-05-23T09:04:23.470Z,101491.41
2018-05-23T09:07:25.982Z,101486.94
2018-05-23T09:10:28.473Z,101490.63
2018-05-23T09:13:31.021Z,101494.20
2018-05-23T09:16:33.508Z,101487.80
2018-05-23T09:19:35.984Z,101501.72
2018-05-23T09:22:38.499Z,101499.80
2018-05-23T09:25:41.005Z,101498.41
2018-05-23T09:28:43.536Z,101506.42
2018-05-23T09:31:46.096Z,101508.30
2018-05-23T09:34:48.662Z,101497.48
2018-05-23T09:37:52.284Z,101504.54
2018-05-23T09:40:54.811Z,101501.70
2018-05-23T09:43:57.308Z,101507.25
2018-05-23T09:46:59.826Z,101498.61
2018-05-23T09:50:02.349Z,101497.31
2018-05-23T09:53:04.870Z,101506.16
2018-05-23T09:56:07.447Z,101501.73
2018-05-23T09:59:10.001Z,101515.08
2018-05-23T10:02:12.524Z,101507.87
2018-05-23T10:05:15.894Z,101505.44
2018-05-23T10:08:18.404Z,101505.34
2018-05-23T10:11:20.970Z,101506.07
2018-05-23T10:14:23.532Z,101506.19
2018-05-23T10:17:26.122Z,101507.72
2018-05-23T10:20:28.610Z,101501.42
2018-05-23T10:23:31.109Z,101504.11
2018-05-23T10:26:33.646Z,101505.30
2018-05-23T10:29:36.741Z,101508.09
2018-05-23T10:32:39.282Z,101511.18
2018-05-23T10:35:41.855Z,101511.14
2018-05-23T10:38:44.383Z,101515.25
2018-05-23T10:41:46.928Z,101512.19
2018-05-23T10:44:49.462Z,101522.20
2018-05-23T10:47:52.012Z,101516.81
2018-05-23T10:50:54.510Z,101515.39
2018-05-23T10:53:57.041Z,101516.49
2018-05-23T10:56:59.561Z,101529.13
2018-05-23T11:00:02.168Z,101529.41
2018-05-23T11:03:04.605Z,101521.05
2018-05-23T11:06:07.124Z,101526.14
2018-05-23T11:09:09.669Z,101530.64
2018-05-23T11:12:12.220Z,101522.33
2018-05-23T11:15:15.553Z,101527.24
2018-05-23T11:18:18.706Z,101520.93
2018-05-23T11:21:21.308Z,101526.26
2018-05-23T11:24:23.898Z,101523.11
2018-05-23T11:27:26.444Z,101519.77
2018-05-23T11:30:28.981Z,101514.92
2018-05-23T11:33:31.554Z,101511.02
2018-05-23T11:36:34.148Z,101505.76
2018-05-23T11:39:36.777Z,101502.58
2018-05-23T11:42:39.504Z,101502.64
2018-05-23T11:45:42.087Z,101503.31
2018-05-23T11:48:44.695Z,101508.11
2018-05-23T11:51:47.235Z,101499.88
2018-05-23T11:54:49.768Z,101501.08
2018-05-23T11:57:52.387Z,101499.52
2018-05-23T12:00:54.910Z,101502.00
2018-05-23T12:03:57.472Z,101504.79
2018-05-23T12:07:00.133Z,101497.16
2018-05-23T12:10:02.691Z,101503.57
2018-05-23T12:13:05.283Z,101506.67
2018-05-23T12:16:07.816Z,101497.61
2018-05-23T12:19:10.369Z,101503.73
2018-05-23T12:22:12.921Z,101507.58
2018-05-23T12:25:15.524Z,101498.66
2018-05-23T12:28:18.053Z,101502.28
2018-05-23T12:31:20.599Z,101502.02
2018-05-23T12:34:23.144Z,101507.14
2018-05-23T12:37:25.677Z,101505.58
2018-05-23T12:40:28.172Z,101503.59
2018-05-23T12:43:30.711Z,101501.96
2018-05-23T12:46:33.251Z,101494.22
2018-05-23T12:49:35.876Z,101503.45
2018-05-23T12:52:38.433Z,101496.11
2018-05-23T12:55:40.941Z,101495.64
2018-05-23T12:58:43.465Z,101494.28
2018-05-23T13:01:45.969Z,101490.83
2018-05-23T13:04:48.510Z,101489.16
2018-05-23T13:07:51.048Z,101494.34
2018-05-23T13:10:53.582Z,101494.52
2018-05-23T13:13:56.149Z,101488.63
2018-05-23T13:16:58.661Z,101485.55
2018-05-23T13:20:01.150Z,101489.50
2018-05-23T13:23:03.714Z,101486.12
2018-05-23T13:26:06.230Z,101483.05
2018-05-23T13:29:08.778Z,101487.49
2018-05-23T13:32:11.313Z,101484.98
2018-05-23T13:35:15.617Z,101478.69
2018-05-23T13:38:18.112Z,101486.84
2018-05-23T13:41:20.612Z,101479.74
2018-05-23T13:44:25.982Z,101482.11
2018-05-23T13:47:28.542Z,101475.62
2018-05-23T13:50:31.196Z,101470.66
2018-05-23T13:53:33.683Z,101464.27
2018-05-23T13:56:36.204Z,101475.42
2018-05-23T13:59:38.731Z,101470.64
2018-05-23T14:02:41.411Z,101475.65
2018-05-23T14:05:43.955Z,101473.53
2018-05-23T14:08:46.683Z,101474.81
2018-05-23T14:11:49.214Z,101467.63
2018-05-23T14:14:51.736Z,101449.94
2018-05-23T14:17:54.272Z,101461.52
2018-05-23T14:20:56.797Z,101454.73
2018-05-23T14:23:59.333Z,101443.37
2018-05-23T14:27:01.863Z,101452.47
2018-05-23T14:30:04.361Z,101451.35
2018-05-23T14:33:07.588Z,101454.73
2018-05-23T14:36:11.574Z,101455.26
2018-05-23T14:39:14.273Z,101457.81
2018-05-23T14:42:16.803Z,101448.73
2018-05-23T14:45:19.322Z,101454.05
2018-05-23T14:48:21.849Z,101451.67
2018-05-23T14:51:25.481Z,101447.19
2018-05-23T14:54:28.037Z,101455.61
2018-05-23T14:57:30.572Z,101450.23
2018-05-23T15:00:33.240Z,101461.03
2018-05-23T15:03:35.775Z,101458.50
2018-05-23T15:06:46.023Z,101450.64
2018-05-23T15:09:56.680Z,101451.95
2018-05-23T15:12:59.308Z,101455.20
2018-05-23T15:16:02.011Z,101457.21
2018-05-23T15:19:04.677Z,101447.59
2018-05-23T15:22:07.379Z,101455.97
2018-05-23T15:28:20.380Z,101450.39
2018-05-23T15:31:23.111Z,101448.85
2018-05-23T15:34:25.673Z,101449.52
2018-05-23T15:37:28.252Z,101449.61
2018-05-23T15:40:30.814Z,101448.62
2018-05-23T15:43:33.457Z,101445.06
2018-05-23T15:46:36.130Z,101446.28
2018-05-23T15:49:39.235Z,101448.27
2018-05-23T15:52:41.807Z,101437.19
2018-05-23T15:55:44.417Z,101444.20
2018-05-23T15:58:46.981Z,101440.68
2018-05-23T16:01:49.539Z,101436.50
2018-05-23T16:04:52.179Z,101437.00
2018-05-23T16:07:54.788Z,101440.36
2018-05-23T16:10:57.578Z,101441.83
2018-05-23T16:14:03.895Z,101450.47
2018-05-23T16:17:06.887Z,101447.11
2018-05-23T16:20:09.610Z,101447.80
2018-05-23T16:23:12.172Z,101455.71
2018-05-23T16:26:16.188Z,101455.42
2018-05-23T16:29:22.377Z,101448.42
2018-05-23T16:32:28.656Z,101448.23
2018-05-23T16:35:35.472Z,101445.14
2018-05-23T16:38:45.185Z,101445.75
2018-05-23T16:41:49.073Z,101445.80
2018-05-23T16:44:57.268Z,101453.00
2018-05-23T16:48:03.961Z,101457.36
2018-05-23T16:51:10.843Z,101453.77
2018-05-23T16:54:19.990Z,101457.54
2018-05-23T16:57:27.667Z,101454.15
2018-05-23T17:00:35.663Z,101458.70
2018-05-23T17:03:44.794Z,101461.78
2018-05-23T17:06:54.554Z,101463.26
2018-05-23T17:09:59.710Z,101464.96
2018-05-23T17:13:03.301Z,101465.16
2018-05-23T17:16:06.787Z,101472.09
2018-05-23T17:19:14.676Z,101472.42
2018-05-23T17:22:18.777Z,101474.81
2018-05-23T17:25:29.468Z,101476.81
2018-05-23T17:28:39.837Z,101481.36
2018-05-23T17:31:52.013Z,101487.83
2018-05-23T17:35:01.776Z,101494.23
2018-05-23T17:38:06.259Z,101492.78
2018-05-23T17:41:09.095Z,101499.17
2018-05-23T17:44:17.103Z,101502.45
2018-05-23T17:47:21.296Z,101502.84
2018-05-23T17:50:27.281Z,101503.84
2018-05-23T17:53:30.721Z,101507.74
2018-05-23T17:56:33.487Z,101513.23
2018-05-23T17:59:37.038Z,101511.53
2018-05-23T18:02:45.839Z,101506.00
2018-05-23T18:05:58.238Z,101501.77
2018-05-23T18:09:01.410Z,101513.82
2018-05-23T18:12:09.764Z,101510.19
2018-05-23T18:15:17.900Z,101517.97
2018-05-23T18:18:28.362Z,101515.23
2018-05-23T18:21:40.178Z,101516.78
2018-05-23T18:24:53.485Z,101518.06
2018-05-23T18:27:58.840Z,101514.90
2018-05-23T18:31:01.836Z,101521.94
2018-05-23T18:34:04.708Z,101516.19
2018-05-23T18:37:07.504Z,101521.44
2018-05-23T18:40:10.279Z,101521.08
2018-05-23T18:43:14.658Z,101528.14
2018-05-23T18:49:58.867Z,101527.09
2018-05-23T18:53:15.054Z,101538.73
2018-05-23T18:56:32.941Z,101542.23
2018-05-23T18:59:41.851Z,101548.53
2018-05-23T19:02:49.039Z,101549.26
2018-05-23T19:06:16.952Z,101551.54
2018-05-23T19:09:24.045Z,101547.77
2018-05-23T19:12:27.920Z,101558.36
2018-05-23T19:15:49.435Z,101571.94
2018-05-23T19:18:52.206Z,101578.91
2018-05-23T19:21:54.946Z,101587.51
2018-05-23T19:24:59.388Z,101590.88
2018-05-23T19:28:04.751Z,101593.05
2018-05-23T19:31:08.627Z,101601.52
2018-05-23T19:34:16.571Z,101596.17
2018-05-23T19:37:22.107Z,101603.25
2018-05-23T19:40:29.296Z,101612.34
2018-05-23T19:44:27.606Z,101611.84
2018-05-23T20:23:35.004Z,101624.47
2018-05-23T20:26:37.672Z,101624.88
2018-05-23T20:29:40.300Z,101632.89
2018-05-23T20:32:42.948Z,101627.80
2018-05-23T20:35:45.757Z,101628.09
2018-05-23T20:38:49.477Z,101630.31
2018-05-23T20:41:52.049Z,101631.33
2018-05-23T20:44:54.676Z,101628.56
2018-05-23T20:47:57.384Z,101621.49
2018-05-23T20:51:00.074Z,101618.87
2018-05-23T20:54:02.694Z,101619.02
2018-05-23T20:57:05.436Z,101629.39
2018-05-23T21:00:09.220Z,101632.51
2018-05-23T21:03:16.650Z,101625.38
2018-05-23T21:06:20.818Z,101624.59
2018-05-23T21:09:23.445Z,101619.71
2018-05-23T21:12:26.095Z,101623.67
2018-05-23T21:15:28.641Z,101625.44
2018-05-23T21:18:31.185Z,101627.83
2018-05-23T21:21:33.816Z,101631.66
2018-05-23T21:24:38.664Z,101633.45
2018-05-23T21:27:43.013Z,101637.78
2018-05-23T21:30:45.605Z,101643.30
2018-05-23T21:36:56.880Z,101638.09
2018-05-23T21:40:00.768Z,101638.09
2018-05-23T21:43:03.405Z,101641.73
2018-05-23T21:46:07.308Z,101642.52
2018-05-23T21:49:09.889Z,101640.52
2018-05-23T21:52:12.491Z,101641.34
2018-05-23T21:55:15.310Z,101641.64
2018-05-23T21:58:18.284Z,101643.72
2018-05-23T22:01:20.850Z,101650.54
2018-05-23T22:04:23.384Z,101643.94
2018-05-23T22:07:26.530Z,101645.42
2018-05-23T22:10:29.112Z,101646.28
2018-05-23T22:13:31.767Z,101644.56
2018-05-23T22:16:35.459Z,101650.29
2018-05-23T22:19:38.827Z,101645.80
2018-05-23T22:22:41.556Z,101646.09
2018-05-23T22:25:44.635Z,101645.92
2018-05-23T22:28:47.290Z,101645.00
2018-05-23T22:31:49.873Z,101652.45
2018-05-23T22:34:52.387Z,101654.23
2018-05-23T22:37:55.242Z,101657.80
2018-05-23T22:40:58.423Z,101661.82
2018-05-23T22:44:01.016Z,101661.13
2018-05-23T22:47:04.825Z,101662.58
2018-05-23T22:50:14.347Z,101665.54
2018-05-23T22:53:18.360Z,101669.58
2018-05-23T22:56:21.072Z,101667.98
2018-05-23T22:59:24.634Z,101675.20
2018-05-23T23:02:27.352Z,101675.38
2018-05-23T23:05:29.915Z,101678.70
2018-05-23T23:08:48.037Z,101687.54
2018-05-23T23:11:51.717Z,101685.05
2018-05-23T23:14:54.262Z,101693.66
2018-05-23T23:17:56.880Z,101691.28
2018-05-23T23:20:59.689Z,101693.17
2018-05-23T23:24:02.287Z,101699.34
2018-05-23T23:27:05.938Z,101700.80
2018-05-23T23:30:08.496Z,101699.77
2018-05-23T23:33:11.121Z,101700.69
2018-05-23T23:36:13.699Z,101700.20
2018-05-23T23:39:16.226Z,101703.73
2018-05-23T23:42:18.816Z,101706.84
2018-05-23T23:45:21.441Z,101708.89
2018-05-23T23:48:25.907Z,101714.92
2018-05-23T23:51:31.470Z,101717.07
2018-05-23T23:54:34.258Z,101713.61
2018-05-23T23:57:36.840Z,101717.03
